sensor_id;sensor_type;location;lat;lon;timestamp;temperature;humidity
66096;SHT31;53861;53.422;14.530;2023-07-13T00:00:07;16.68;84.70
66096;SHT31;53861;53.422;14.530;2023-07-13T00:02:37;16.61;85.04
66096;SHT31;53861;53.422;14.530;2023-07-13T00:05:04;16.56;84.99
66096;SHT31;53861;53.422;14.530;2023-07-13T00:07:32;16.57;85.28
66096;SHT31;53861;53.422;14.530;2023-07-13T00:09:59;16.53;85.14
66096;SHT31;53861;53.422;14.530;2023-07-13T00:12:28;16.56;85.29
66096;SHT31;53861;53.422;14.530;2023-07-13T00:14:56;16.54;85.04
66096;SHT31;53861;53.422;14.530;2023-07-13T00:17:23;16.58;85.19
66096;SHT31;53861;53.422;14.530;2023-07-13T00:19:51;16.61;85.02
66096;SHT31;53861;53.422;14.530;2023-07-13T00:22:18;16.57;85.09
66096;SHT31;53861;53.422;14.530;2023-07-13T00:24:45;16.54;85.50
66096;SHT31;53861;53.422;14.530;2023-07-13T00:27:12;16.56;85.34
66096;SHT31;53861;53.422;14.530;2023-07-13T00:29:39;16.48;84.72
66096;SHT31;53861;53.422;14.530;2023-07-13T00:32:07;16.48;85.60
66096;SHT31;53861;53.422;14.530;2023-07-13T00:34:35;16.57;85.50
66096;SHT31;53861;53.422;14.530;2023-07-13T00:37:03;16.60;85.16
66096;SHT31;53861;53.422;14.530;2023-07-13T00:39:32;16.50;85.33
66096;SHT31;53861;53.422;14.530;2023-07-13T00:41:59;16.38;85.53
66096;SHT31;53861;53.422;14.530;2023-07-13T00:44:26;16.28;86.15
66096;SHT31;53861;53.422;14.530;2023-07-13T00:46:54;16.37;85.92
66096;SHT31;53861;53.422;14.530;2023-07-13T00:49:22;16.30;85.82
66096;SHT31;53861;53.422;14.530;2023-07-13T00:51:50;16.37;86.02
66096;SHT31;53861;53.422;14.530;2023-07-13T00:54:21;16.48;85.96
66096;SHT31;53861;53.422;14.530;2023-07-13T00:56:49;16.48;85.21
66096;SHT31;53861;53.422;14.530;2023-07-13T00:59:17;16.48;85.82
66096;SHT31;53861;53.422;14.530;2023-07-13T01:01:44;16.40;85.51
66096;SHT31;53861;53.422;14.530;2023-07-13T01:04:11;16.46;85.36
66096;SHT31;53861;53.422;14.530;2023-07-13T01:06:40;16.38;85.67
66096;SHT31;53861;53.422;14.530;2023-07-13T01:09:09;16.33;85.81
66096;SHT31;53861;53.422;14.530;2023-07-13T01:11:41;16.31;85.81
66096;SHT31;53861;53.422;14.530;2023-07-13T01:14:10;16.33;86.02
66096;SHT31;53861;53.422;14.530;2023-07-13T01:16:37;16.31;85.81
66096;SHT31;53861;53.422;14.530;2023-07-13T01:19:12;16.26;86.02
66096;SHT31;53861;53.422;14.530;2023-07-13T01:21:43;16.24;85.30
66096;SHT31;53861;53.422;14.530;2023-07-13T01:24:10;16.27;86.07
66096;SHT31;53861;53.422;14.530;2023-07-13T01:26:38;16.21;86.06
66096;SHT31;53861;53.422;14.530;2023-07-13T01:29:06;16.21;85.50
66096;SHT31;53861;53.422;14.530;2023-07-13T01:31:34;16.17;85.71
66096;SHT31;53861;53.422;14.530;2023-07-13T01:34:01;16.14;85.94
66096;SHT31;53861;53.422;14.530;2023-07-13T01:36:28;16.27;85.87
66096;SHT31;53861;53.422;14.530;2023-07-13T01:38:56;16.23;84.80
66096;SHT31;53861;53.422;14.530;2023-07-13T01:41:23;16.28;85.71
66096;SHT31;53861;53.422;14.530;2023-07-13T01:43:50;16.33;83.90
66096;SHT31;53861;53.422;14.530;2023-07-13T01:46:17;16.38;83.80
66096;SHT31;53861;53.422;14.530;2023-07-13T01:48:44;16.47;83.63
66096;SHT31;53861;53.422;14.530;2023-07-13T01:51:11;16.46;83.28
66096;SHT31;53861;53.422;14.530;2023-07-13T01:53:39;16.51;84.16
66096;SHT31;53861;53.422;14.530;2023-07-13T01:56:07;16.57;84.24
66096;SHT31;53861;53.422;14.530;2023-07-13T01:58:34;16.58;83.70
66096;SHT31;53861;53.422;14.530;2023-07-13T02:01:01;16.51;84.68
66096;SHT31;53861;53.422;14.530;2023-07-13T02:03:28;16.51;84.74
66096;SHT31;53861;53.422;14.530;2023-07-13T02:05:57;16.47;84.74
66096;SHT31;53861;53.422;14.530;2023-07-13T02:08:24;16.33;85.11
66096;SHT31;53861;53.422;14.530;2023-07-13T02:10:51;16.24;84.82
66096;SHT31;53861;53.422;14.530;2023-07-13T02:13:20;16.21;85.22
66096;SHT31;53861;53.422;14.530;2023-07-13T02:15:49;16.18;84.52
66096;SHT31;53861;53.422;14.530;2023-07-13T02:18:16;16.10;84.03
66096;SHT31;53861;53.422;14.530;2023-07-13T02:20:43;16.16;83.42
66096;SHT31;53861;53.422;14.530;2023-07-13T02:23:11;16.04;85.10
66096;SHT31;53861;53.422;14.530;2023-07-13T02:25:38;15.79;86.49
66096;SHT31;53861;53.422;14.530;2023-07-13T02:28:05;15.70;86.60
66096;SHT31;53861;53.422;14.530;2023-07-13T02:30:36;15.58;86.89
66096;SHT31;53861;53.422;14.530;2023-07-13T02:33:04;15.62;87.05
66096;SHT31;53861;53.422;14.530;2023-07-13T02:35:31;15.72;87.35
66096;SHT31;53861;53.422;14.530;2023-07-13T02:37:58;15.69;87.32
66096;SHT31;53861;53.422;14.530;2023-07-13T02:40:25;15.63;87.41
66096;SHT31;53861;53.422;14.530;2023-07-13T02:42:51;15.59;87.53
66096;SHT31;53861;53.422;14.530;2023-07-13T02:45:18;15.48;87.26
66096;SHT31;53861;53.422;14.530;2023-07-13T02:47:47;15.41;87.76
66096;SHT31;53861;53.422;14.530;2023-07-13T02:50:14;15.35;87.33
66096;SHT31;53861;53.422;14.530;2023-07-13T02:52:41;15.31;87.96
66096;SHT31;53861;53.422;14.530;2023-07-13T02:55:08;15.27;88.27
66096;SHT31;53861;53.422;14.530;2023-07-13T02:57:35;15.17;88.51
66096;SHT31;53861;53.422;14.530;2023-07-13T03:00:02;15.21;88.84
66096;SHT31;53861;53.422;14.530;2023-07-13T03:02:31;15.14;88.55
66096;SHT31;53861;53.422;14.530;2023-07-13T03:04:59;15.15;89.43
66096;SHT31;53861;53.422;14.530;2023-07-13T03:07:26;15.20;89.11
66096;SHT31;53861;53.422;14.530;2023-07-13T03:09:54;15.20;88.60
66096;SHT31;53861;53.422;14.530;2023-07-13T03:12:21;15.24;88.46
66096;SHT31;53861;53.422;14.530;2023-07-13T03:14:48;15.27;88.72
66096;SHT31;53861;53.422;14.530;2023-07-13T03:17:15;15.28;88.48
66096;SHT31;53861;53.422;14.530;2023-07-13T03:19:41;15.28;88.39
66096;SHT31;53861;53.422;14.530;2023-07-13T03:22:10;15.25;87.98
66096;SHT31;53861;53.422;14.530;2023-07-13T03:24:37;15.31;88.05
66096;SHT31;53861;53.422;14.530;2023-07-13T03:27:04;15.39;87.84
66096;SHT31;53861;53.422;14.530;2023-07-13T03:29:32;15.39;87.96
66096;SHT31;53861;53.422;14.530;2023-07-13T03:31:59;15.45;87.74
66096;SHT31;53861;53.422;14.530;2023-07-13T03:34:26;15.39;87.76
66096;SHT31;53861;53.422;14.530;2023-07-13T03:36:53;15.42;87.47
66096;SHT31;53861;53.422;14.530;2023-07-13T03:39:21;15.52;86.78
66096;SHT31;53861;53.422;14.530;2023-07-13T03:41:49;15.63;86.79
66096;SHT31;53861;53.422;14.530;2023-07-13T03:44:16;15.65;86.17
66096;SHT31;53861;53.422;14.530;2023-07-13T03:46:44;15.72;85.33
66096;SHT31;53861;53.422;14.530;2023-07-13T03:49:11;15.75;85.13
66096;SHT31;53861;53.422;14.530;2023-07-13T03:51:38;15.85;85.02
66096;SHT31;53861;53.422;14.530;2023-07-13T03:54:05;15.95;85.13
66096;SHT31;53861;53.422;14.530;2023-07-13T03:56:33;15.90;84.90
66096;SHT31;53861;53.422;14.530;2023-07-13T03:59:00;15.93;85.64
66096;SHT31;53861;53.422;14.530;2023-07-13T04:01:27;15.86;85.00
66096;SHT31;53861;53.422;14.530;2023-07-13T04:03:55;15.99;85.72
66096;SHT31;53861;53.422;14.530;2023-07-13T04:06:23;16.00;85.59
66096;SHT31;53861;53.422;14.530;2023-07-13T04:08:51;16.06;85.09
66096;SHT31;53861;53.422;14.530;2023-07-13T04:11:23;16.10;84.90
66096;SHT31;53861;53.422;14.530;2023-07-13T04:13:52;16.17;85.02
66096;SHT31;53861;53.422;14.530;2023-07-13T04:16:19;16.23;85.04
66096;SHT31;53861;53.422;14.530;2023-07-13T04:18:47;16.21;85.70
66096;SHT31;53861;53.422;14.530;2023-07-13T04:21:14;16.20;85.42
66096;SHT31;53861;53.422;14.530;2023-07-13T04:23:41;16.24;86.04
66096;SHT31;53861;53.422;14.530;2023-07-13T04:26:09;16.31;86.11
66096;SHT31;53861;53.422;14.530;2023-07-13T04:28:36;16.30;84.24
66096;SHT31;53861;53.422;14.530;2023-07-13T04:31:04;16.51;83.83
66096;SHT31;53861;53.422;14.530;2023-07-13T04:33:31;16.67;83.35
66096;SHT31;53861;53.422;14.530;2023-07-13T04:35:58;16.64;83.62
66096;SHT31;53861;53.422;14.530;2023-07-13T04:38:28;16.64;83.77
66096;SHT31;53861;53.422;14.530;2023-07-13T04:40:58;16.72;83.58
66096;SHT31;53861;53.422;14.530;2023-07-13T04:43:26;16.71;83.16
66096;SHT31;53861;53.422;14.530;2023-07-13T04:45:53;16.79;82.95
66096;SHT31;53861;53.422;14.530;2023-07-13T04:48:22;16.85;83.00
66096;SHT31;53861;53.422;14.530;2023-07-13T04:50:54;16.92;82.47
66096;SHT31;53861;53.422;14.530;2023-07-13T04:53:21;16.98;82.40
66096;SHT31;53861;53.422;14.530;2023-07-13T04:55:48;17.07;82.24
66096;SHT31;53861;53.422;14.530;2023-07-13T04:58:15;17.05;81.64
66096;SHT31;53861;53.422;14.530;2023-07-13T05:00:42;17.19;81.43
66096;SHT31;53861;53.422;14.530;2023-07-13T05:03:09;17.22;81.63
66096;SHT31;53861;53.422;14.530;2023-07-13T05:05:37;17.20;81.16
66096;SHT31;53861;53.422;14.530;2023-07-13T05:08:04;17.14;81.10
66096;SHT31;53861;53.422;14.530;2023-07-13T05:10:32;17.15;81.07
66096;SHT31;53861;53.422;14.530;2023-07-13T05:12:59;17.25;81.31
66096;SHT31;53861;53.422;14.530;2023-07-13T05:15:26;17.36;80.99
66096;SHT31;53861;53.422;14.530;2023-07-13T05:17:53;17.49;81.05
66096;SHT31;53861;53.422;14.530;2023-07-13T05:20:20;17.60;80.45
66096;SHT31;53861;53.422;14.530;2023-07-13T05:22:49;17.70;79.63
66096;SHT31;53861;53.422;14.530;2023-07-13T05:25:16;17.79;79.72
66096;SHT31;53861;53.422;14.530;2023-07-13T05:27:43;17.91;79.08
66096;SHT31;53861;53.422;14.530;2023-07-13T05:30:11;18.01;78.75
66096;SHT31;53861;53.422;14.530;2023-07-13T05:32:38;18.12;78.86
66096;SHT31;53861;53.422;14.530;2023-07-13T05:35:05;18.14;79.13
66096;SHT31;53861;53.422;14.530;2023-07-13T05:37:36;18.14;78.80
66096;SHT31;53861;53.422;14.530;2023-07-13T05:40:05;18.18;78.40
66096;SHT31;53861;53.422;14.530;2023-07-13T05:42:33;18.21;77.65
66096;SHT31;53861;53.422;14.530;2023-07-13T05:44:59;18.42;77.85
66096;SHT31;53861;53.422;14.530;2023-07-13T05:47:26;18.62;77.05
66096;SHT31;53861;53.422;14.530;2023-07-13T05:49:53;18.72;76.63
66096;SHT31;53861;53.422;14.530;2023-07-13T05:52:20;18.73;76.25
66096;SHT31;53861;53.422;14.530;2023-07-13T05:54:47;18.86;75.97
66096;SHT31;53861;53.422;14.530;2023-07-13T05:57:15;18.83;75.81
66096;SHT31;53861;53.422;14.530;2023-07-13T05:59:42;19.15;75.30
66096;SHT31;53861;53.422;14.530;2023-07-13T06:02:09;19.47;74.54
66096;SHT31;53861;53.422;14.530;2023-07-13T06:04:37;19.67;73.88
66096;SHT31;53861;53.422;14.530;2023-07-13T06:07:04;19.78;73.46
66096;SHT31;53861;53.422;14.530;2023-07-13T06:09:31;19.95;72.88
66096;SHT31;53861;53.422;14.530;2023-07-13T06:12:00;20.14;72.10
66096;SHT31;53861;53.422;14.530;2023-07-13T06:14:28;20.38;71.81
66096;SHT31;53861;53.422;14.530;2023-07-13T06:16:55;20.65;71.45
66096;SHT31;53861;53.422;14.530;2023-07-13T06:19:22;20.89;71.50
66096;SHT31;53861;53.422;14.530;2023-07-13T06:21:49;20.96;70.72
66096;SHT31;53861;53.422;14.530;2023-07-13T06:24:16;21.08;70.51
66096;SHT31;53861;53.422;14.530;2023-07-13T06:26:46;21.37;70.29
66096;SHT31;53861;53.422;14.530;2023-07-13T06:29:13;21.21;69.81
66096;SHT31;53861;53.422;14.530;2023-07-13T06:31:41;21.31;69.70
66096;SHT31;53861;53.422;14.530;2023-07-13T06:34:08;21.58;68.90
66096;SHT31;53861;53.422;14.530;2023-07-13T06:36:38;21.55;69.18
66096;SHT31;53861;53.422;14.530;2023-07-13T06:39:08;21.69;69.89
66096;SHT31;53861;53.422;14.530;2023-07-13T06:41:35;21.74;68.37
66096;SHT31;53861;53.422;14.530;2023-07-13T06:44:05;21.96;67.94
66096;SHT31;53861;53.422;14.530;2023-07-13T06:46:35;21.64;67.48
66096;SHT31;53861;53.422;14.530;2023-07-13T06:49:08;21.85;66.30
66096;SHT31;53861;53.422;14.530;2023-07-13T06:51:37;22.35;68.51
66096;SHT31;53861;53.422;14.530;2023-07-13T06:54:04;22.64;64.38
66096;SHT31;53861;53.422;14.530;2023-07-13T06:56:31;23.22;64.99
66096;SHT31;53861;53.422;14.530;2023-07-13T06:58:58;24.02;60.18
66096;SHT31;53861;53.422;14.530;2023-07-13T07:01:25;23.75;60.77
66096;SHT31;53861;53.422;14.530;2023-07-13T07:03:52;24.00;61.02
66096;SHT31;53861;53.422;14.530;2023-07-13T07:06:21;23.55;61.49
66096;SHT31;53861;53.422;14.530;2023-07-13T07:08:49;23.18;58.67
66096;SHT31;53861;53.422;14.530;2023-07-13T07:11:17;23.28;59.61
66096;SHT31;53861;53.422;14.530;2023-07-13T07:13:44;23.49;60.42
66096;SHT31;53861;53.422;14.530;2023-07-13T07:16:11;23.66;59.24
66096;SHT31;53861;53.422;14.530;2023-07-13T07:18:38;23.58;57.02
66096;SHT31;53861;53.422;14.530;2023-07-13T07:21:06;23.37;56.72
66096;SHT31;53861;53.422;14.530;2023-07-13T07:23:34;24.03;56.42
66096;SHT31;53861;53.422;14.530;2023-07-13T07:26:04;24.16;58.23
66096;SHT31;53861;53.422;14.530;2023-07-13T07:28:31;24.98;59.17
66096;SHT31;53861;53.422;14.530;2023-07-13T07:30:58;25.02;54.38
66096;SHT31;53861;53.422;14.530;2023-07-13T07:33:25;25.56;53.38
66096;SHT31;53861;53.422;14.530;2023-07-13T07:35:52;26.28;51.87
66096;SHT31;53861;53.422;14.530;2023-07-13T07:38:19;26.12;54.97
66096;SHT31;53861;53.422;14.530;2023-07-13T07:40:47;26.65;51.78
66096;SHT31;53861;53.422;14.530;2023-07-13T07:43:14;27.00;50.77
66096;SHT31;53861;53.422;14.530;2023-07-13T07:45:41;26.78;47.68
66096;SHT31;53861;53.422;14.530;2023-07-13T07:48:08;26.72;46.76
66096;SHT31;53861;53.422;14.530;2023-07-13T07:50:35;26.69;51.25
66096;SHT31;53861;53.422;14.530;2023-07-13T07:53:04;26.65;49.22
66096;SHT31;53861;53.422;14.530;2023-07-13T07:55:33;27.49;48.80
66096;SHT31;53861;53.422;14.530;2023-07-13T07:58:01;28.15;47.86
66096;SHT31;53861;53.422;14.530;2023-07-13T08:00:28;27.19;47.38
66096;SHT31;53861;53.422;14.530;2023-07-13T08:02:57;27.39;47.92
66096;SHT31;53861;53.422;14.530;2023-07-13T08:05:24;28.17;47.85
66096;SHT31;53861;53.422;14.530;2023-07-13T08:07:51;28.56;46.27
66096;SHT31;53861;53.422;14.530;2023-07-13T08:10:18;28.10;47.42
66096;SHT31;53861;53.422;14.530;2023-07-13T08:12:45;27.40;48.93
66096;SHT31;53861;53.422;14.530;2023-07-13T08:15:15;28.04;50.44
66096;SHT31;53861;53.422;14.530;2023-07-13T08:17:42;28.22;49.94
66096;SHT31;53861;53.422;14.530;2023-07-13T08:20:10;28.61;47.81
66096;SHT31;53861;53.422;14.530;2023-07-13T08:22:37;28.59;48.58
66096;SHT31;53861;53.422;14.530;2023-07-13T08:25:04;28.47;50.80
66096;SHT31;53861;53.422;14.530;2023-07-13T08:27:31;27.81;49.31
66096;SHT31;53861;53.422;14.530;2023-07-13T08:29:58;27.81;47.30
66096;SHT31;53861;53.422;14.530;2023-07-13T08:32:26;27.15;49.77
66096;SHT31;53861;53.422;14.530;2023-07-13T08:34:54;27.53;47.20
66096;SHT31;53861;53.422;14.530;2023-07-13T08:37:21;26.98;48.67
66096;SHT31;53861;53.422;14.530;2023-07-13T08:39:49;27.60;48.63
66096;SHT31;53861;53.422;14.530;2023-07-13T08:42:18;27.57;47.28
66096;SHT31;53861;53.422;14.530;2023-07-13T08:44:50;27.68;46.96
66096;SHT31;53861;53.422;14.530;2023-07-13T08:47:21;28.15;48.57
66096;SHT31;53861;53.422;14.530;2023-07-13T08:49:50;27.60;47.81
66096;SHT31;53861;53.422;14.530;2023-07-13T08:52:29;27.59;48.15
66096;SHT31;53861;53.422;14.530;2023-07-13T08:54:58;27.76;45.79
66096;SHT31;53861;53.422;14.530;2023-07-13T08:57:31;27.27;50.50
66096;SHT31;53861;53.422;14.530;2023-07-13T08:59:59;27.43;47.11
66096;SHT31;53861;53.422;14.530;2023-07-13T09:02:26;27.23;49.20
66096;SHT31;53861;53.422;14.530;2023-07-13T09:04:56;28.17;49.88
66096;SHT31;53861;53.422;14.530;2023-07-13T09:07:29;28.18;45.77
66096;SHT31;53861;53.422;14.530;2023-07-13T09:10:05;27.83;46.73
66096;SHT31;53861;53.422;14.530;2023-07-13T09:12:35;27.83;46.58
66096;SHT31;53861;53.422;14.530;2023-07-13T09:15:05;26.08;49.53
66096;SHT31;53861;53.422;14.530;2023-07-13T09:17:41;26.54;52.11
66096;SHT31;53861;53.422;14.530;2023-07-13T09:20:15;28.31;45.99
66096;SHT31;53861;53.422;14.530;2023-07-13T09:22:46;28.14;45.78
66096;SHT31;53861;53.422;14.530;2023-07-13T09:25:18;28.45;44.21
66096;SHT31;53861;53.422;14.530;2023-07-13T09:27:48;27.67;47.07
66096;SHT31;53861;53.422;14.530;2023-07-13T09:30:23;28.25;44.80
66096;SHT31;53861;53.422;14.530;2023-07-13T09:32:52;27.84;46.56
66096;SHT31;53861;53.422;14.530;2023-07-13T09:35:23;27.57;45.61
66096;SHT31;53861;53.422;14.530;2023-07-13T09:37:50;27.87;46.95
66096;SHT31;53861;53.422;14.530;2023-07-13T09:40:20;27.50;48.80
66096;SHT31;53861;53.422;14.530;2023-07-13T09:42:49;26.88;47.22
66096;SHT31;53861;53.422;14.530;2023-07-13T09:45:17;26.65;49.11
66096;SHT31;53861;53.422;14.530;2023-07-13T09:47:54;26.75;48.86
66096;SHT31;53861;53.422;14.530;2023-07-13T09:50:26;27.02;46.46
66096;SHT31;53861;53.422;14.530;2023-07-13T09:52:55;26.92;46.94
66096;SHT31;53861;53.422;14.530;2023-07-13T09:55:25;27.30;47.59
66096;SHT31;53861;53.422;14.530;2023-07-13T09:57:52;26.65;48.81
66096;SHT31;53861;53.422;14.530;2023-07-13T10:00:23;26.61;47.69
66096;SHT31;53861;53.422;14.530;2023-07-13T10:03:01;27.84;51.28
66096;SHT31;53861;53.422;14.530;2023-07-13T10:05:38;29.34;46.22
66096;SHT31;53861;53.422;14.530;2023-07-13T10:08:05;29.04;44.44
66096;SHT31;53861;53.422;14.530;2023-07-13T10:10:33;28.27;44.99
66096;SHT31;53861;53.422;14.530;2023-07-13T10:13:01;27.12;46.59
66096;SHT31;53861;53.422;14.530;2023-07-13T10:15:29;26.51;51.11
66096;SHT31;53861;53.422;14.530;2023-07-13T10:17:56;26.62;48.41
66096;SHT31;53861;53.422;14.530;2023-07-13T10:20:24;26.72;48.87
66096;SHT31;53861;53.422;14.530;2023-07-13T10:22:53;26.27;49.58
66096;SHT31;53861;53.422;14.530;2023-07-13T10:25:22;26.07;49.11
66096;SHT31;53861;53.422;14.530;2023-07-13T10:27:50;25.82;49.18
66096;SHT31;53861;53.422;14.530;2023-07-13T10:30:19;25.76;50.16
66096;SHT31;53861;53.422;14.530;2023-07-13T10:32:46;26.07;49.39
66096;SHT31;53861;53.422;14.530;2023-07-13T10:35:15;25.69;49.87
66096;SHT31;53861;53.422;14.530;2023-07-13T10:37:45;25.32;50.74
66096;SHT31;53861;53.422;14.530;2023-07-13T10:40:16;25.70;50.97
66096;SHT31;53861;53.422;14.530;2023-07-13T10:42:44;26.00;49.96
66096;SHT31;53861;53.422;14.530;2023-07-13T10:45:16;26.71;49.72
66096;SHT31;53861;53.422;14.530;2023-07-13T10:47:46;28.49;45.34
66096;SHT31;53861;53.422;14.530;2023-07-13T10:50:15;29.23;43.83
66096;SHT31;53861;53.422;14.530;2023-07-13T10:52:45;29.85;43.13
66096;SHT31;53861;53.422;14.530;2023-07-13T10:55:33;31.20;40.88
66096;SHT31;53861;53.422;14.530;2023-07-13T10:58:01;32.19;39.38
66096;SHT31;53861;53.422;14.530;2023-07-13T11:00:30;30.08;42.26
66096;SHT31;53861;53.422;14.530;2023-07-13T11:02:58;28.93;44.15
66096;SHT31;53861;53.422;14.530;2023-07-13T11:05:28;28.00;47.11
66096;SHT31;53861;53.422;14.530;2023-07-13T11:07:56;28.17;46.27
66096;SHT31;53861;53.422;14.530;2023-07-13T11:10:49;28.48;44.84
66096;SHT31;53861;53.422;14.530;2023-07-13T11:13:36;28.07;44.95
66096;SHT31;53861;53.422;14.530;2023-07-13T11:16:12;27.12;45.65
66096;SHT31;53861;53.422;14.530;2023-07-13T11:18:39;26.68;45.49
66096;SHT31;53861;53.422;14.530;2023-07-13T11:21:14;26.61;45.71
66096;SHT31;53861;53.422;14.530;2023-07-13T11:23:42;26.78;45.37
66096;SHT31;53861;53.422;14.530;2023-07-13T11:28:53;28.27;43.98
66096;SHT31;53861;53.422;14.530;2023-07-13T11:31:20;29.34;41.86
66096;SHT31;53861;53.422;14.530;2023-07-13T11:33:52;30.14;39.70
66096;SHT31;53861;53.422;14.530;2023-07-13T11:36:20;29.80;39.26
66096;SHT31;53861;53.422;14.530;2023-07-13T11:38:51;30.47;41.73
66096;SHT31;53861;53.422;14.530;2023-07-13T11:41:22;30.72;39.95
66096;SHT31;53861;53.422;14.530;2023-07-13T11:43:49;29.92;39.91
66096;SHT31;53861;53.422;14.530;2023-07-13T11:46:19;28.42;42.03
66096;SHT31;53861;53.422;14.530;2023-07-13T11:48:47;29.73;40.79
66096;SHT31;53861;53.422;14.530;2023-07-13T11:51:16;30.42;41.03
66096;SHT31;53861;53.422;14.530;2023-07-13T11:53:46;29.94;40.56
66096;SHT31;53861;53.422;14.530;2023-07-13T11:56:13;29.09;42.46
66096;SHT31;53861;53.422;14.530;2023-07-13T11:58:40;29.81;44.02
66096;SHT31;53861;53.422;14.530;2023-07-13T12:01:12;29.77;44.09
66096;SHT31;53861;53.422;14.530;2023-07-13T12:03:43;29.07;43.18
66096;SHT31;53861;53.422;14.530;2023-07-13T12:06:24;27.78;44.62
66096;SHT31;53861;53.422;14.530;2023-07-13T12:08:55;27.94;45.28
66096;SHT31;53861;53.422;14.530;2023-07-13T12:11:23;28.17;47.91
66096;SHT31;53861;53.422;14.530;2023-07-13T12:13:50;27.29;44.03
66096;SHT31;53861;53.422;14.530;2023-07-13T12:16:24;26.91;44.77
66096;SHT31;53861;53.422;14.530;2023-07-13T12:18:53;26.82;45.19
66096;SHT31;53861;53.422;14.530;2023-07-13T12:21:24;26.38;44.89
66096;SHT31;53861;53.422;14.530;2023-07-13T12:23:53;25.72;45.62
66096;SHT31;53861;53.422;14.530;2023-07-13T12:26:19;26.05;46.35
66096;SHT31;53861;53.422;14.530;2023-07-13T12:28:47;25.98;45.52
66096;SHT31;53861;53.422;14.530;2023-07-13T12:31:22;26.17;45.70
66096;SHT31;53861;53.422;14.530;2023-07-13T12:33:57;26.37;45.99
66096;SHT31;53861;53.422;14.530;2023-07-13T12:36:24;27.47;44.28
66096;SHT31;53861;53.422;14.530;2023-07-13T12:38:51;27.12;43.79
66096;SHT31;53861;53.422;14.530;2023-07-13T12:41:18;26.85;44.07
66096;SHT31;53861;53.422;14.530;2023-07-13T12:43:46;26.56;46.61
66096;SHT31;53861;53.422;14.530;2023-07-13T12:46:17;26.71;46.42
66096;SHT31;53861;53.422;14.530;2023-07-13T12:48:47;26.49;46.84
66096;SHT31;53861;53.422;14.530;2023-07-13T12:51:16;26.49;46.76
66096;SHT31;53861;53.422;14.530;2023-07-13T12:53:47;26.67;47.06
66096;SHT31;53861;53.422;14.530;2023-07-13T12:56:15;26.68;46.81
66096;SHT31;53861;53.422;14.530;2023-07-13T12:58:44;27.16;46.97
66096;SHT31;53861;53.422;14.530;2023-07-13T13:01:14;27.30;46.22
66096;SHT31;53861;53.422;14.530;2023-07-13T13:03:45;26.89;47.13
66096;SHT31;53861;53.422;14.530;2023-07-13T13:06:21;26.65;49.39
66096;SHT31;53861;53.422;14.530;2023-07-13T13:08:49;26.74;50.90
66096;SHT31;53861;53.422;14.530;2023-07-13T13:11:17;26.44;47.98
66096;SHT31;53861;53.422;14.530;2023-07-13T13:13:44;26.56;47.36
66096;SHT31;53861;53.422;14.530;2023-07-13T13:16:14;27.10;46.47
66096;SHT31;53861;53.422;14.530;2023-07-13T13:18:44;27.09;46.78
66096;SHT31;53861;53.422;14.530;2023-07-13T13:21:11;27.23;46.30
66096;SHT31;53861;53.422;14.530;2023-07-13T13:23:39;27.40;45.99
66096;SHT31;53861;53.422;14.530;2023-07-13T13:26:08;26.92;47.57
66096;SHT31;53861;53.422;14.530;2023-07-13T13:28:35;27.13;48.02
66096;SHT31;53861;53.422;14.530;2023-07-13T13:31:02;27.33;48.39
66096;SHT31;53861;53.422;14.530;2023-07-13T13:33:29;27.05;48.04
66096;SHT31;53861;53.422;14.530;2023-07-13T13:35:57;26.85;47.85
66096;SHT31;53861;53.422;14.530;2023-07-13T13:38:25;26.99;46.90
66096;SHT31;53861;53.422;14.530;2023-07-13T13:40:54;26.65;47.56
66096;SHT31;53861;53.422;14.530;2023-07-13T13:43:22;26.65;48.28
66096;SHT31;53861;53.422;14.530;2023-07-13T13:45:52;26.00;48.08
66096;SHT31;53861;53.422;14.530;2023-07-13T13:48:20;26.64;47.76
66096;SHT31;53861;53.422;14.530;2023-07-13T13:50:54;26.59;48.52
66096;SHT31;53861;53.422;14.530;2023-07-13T13:53:21;26.16;47.49
66096;SHT31;53861;53.422;14.530;2023-07-13T13:55:49;25.93;48.86
66096;SHT31;53861;53.422;14.530;2023-07-13T13:58:19;26.23;47.79
66096;SHT31;53861;53.422;14.530;2023-07-13T14:00:47;26.00;47.23
66096;SHT31;53861;53.422;14.530;2023-07-13T14:03:15;25.97;47.96
66096;SHT31;53861;53.422;14.530;2023-07-13T14:05:43;26.10;47.57
66096;SHT31;53861;53.422;14.530;2023-07-13T14:08:18;26.23;48.00
66096;SHT31;53861;53.422;14.530;2023-07-13T14:10:46;25.92;48.34
66096;SHT31;53861;53.422;14.530;2023-07-13T14:13:15;26.45;47.82
66096;SHT31;53861;53.422;14.530;2023-07-13T14:15:45;27.37;46.64
66096;SHT31;53861;53.422;14.530;2023-07-13T14:18:13;27.96;45.39
66096;SHT31;53861;53.422;14.530;2023-07-13T14:20:43;28.11;48.13
66096;SHT31;53861;53.422;14.530;2023-07-13T14:23:11;27.66;45.76
66096;SHT31;53861;53.422;14.530;2023-07-13T14:25:39;27.20;45.40
66096;SHT31;53861;53.422;14.530;2023-07-13T14:28:10;27.76;46.63
66096;SHT31;53861;53.422;14.530;2023-07-13T14:30:41;27.83;44.70
66096;SHT31;53861;53.422;14.530;2023-07-13T14:33:10;28.20;43.04
66096;SHT31;53861;53.422;14.530;2023-07-13T14:35:37;28.34;43.04
66096;SHT31;53861;53.422;14.530;2023-07-13T14:38:04;28.48;43.98
66096;SHT31;53861;53.422;14.530;2023-07-13T14:40:32;28.89;42.90
66096;SHT31;53861;53.422;14.530;2023-07-13T14:42:59;28.59;45.17
66096;SHT31;53861;53.422;14.530;2023-07-13T14:45:26;28.08;44.10
66096;SHT31;53861;53.422;14.530;2023-07-13T14:47:53;27.23;44.54
66096;SHT31;53861;53.422;14.530;2023-07-13T14:50:22;27.40;44.58
66096;SHT31;53861;53.422;14.530;2023-07-13T14:52:51;27.70;44.47
66096;SHT31;53861;53.422;14.530;2023-07-13T14:55:18;27.50;44.31
66096;SHT31;53861;53.422;14.530;2023-07-13T14:57:47;27.80;43.40
66096;SHT31;53861;53.422;14.530;2023-07-13T15:00:16;27.47;44.25
66096;SHT31;53861;53.422;14.530;2023-07-13T15:02:43;27.68;43.78
66096;SHT31;53861;53.422;14.530;2023-07-13T15:05:13;27.88;43.51
66096;SHT31;53861;53.422;14.530;2023-07-13T15:07:41;28.00;44.20
66096;SHT31;53861;53.422;14.530;2023-07-13T15:10:12;27.86;43.62
66096;SHT31;53861;53.422;14.530;2023-07-13T15:12:39;27.66;44.32
66096;SHT31;53861;53.422;14.530;2023-07-13T15:15:07;27.39;44.29
66096;SHT31;53861;53.422;14.530;2023-07-13T15:17:35;27.86;44.18
66096;SHT31;53861;53.422;14.530;2023-07-13T15:20:03;27.73;43.71
66096;SHT31;53861;53.422;14.530;2023-07-13T15:22:33;28.00;44.29
66096;SHT31;53861;53.422;14.530;2023-07-13T15:25:01;27.63;44.34